Аэропорт: Шымкент. Шымкент

ICAO: UAII

METAR:
2019-09-16 01:30:00
UAII 160130Z 14004MPS CAVOK 12/06 Q1020 R28/0///70 NOSIG RMK QFE728/0970
METAR:
2019-09-15 23:00:00
TAF UAII 152300Z 1600/1624 12005MPS 6000 SCT100 TX26/1610Z TN09/1601Z BECMG 1603/1605 26007G12MPS 9999 SCT050 BKN100 TEMPO 1605/1612 30005G10MPS SCT040CB BECMG 1615/1617 10004MPS